Time;durP1;ratioP1;P1;durP2;ratioP2;P2;SDS_P1;SDS_P2;PMS_P1;PMS_P2;Temp;Humidity;BMP_temperature;BMP_pressure;BME280_temperature;BME280_humidity;BME280_pressure;Samples;Min_cycle;Max_cycle;Signal;HPM_P1;HPM_P2
2023/06/28 00:01:53;;;;;;;2.80;1.70;;;;;;;;;;5059373;28;20911;-71
2023/06/28 00:04:20;;;;;;;3.70;1.90;;;;;;;;;;5053613;28;20437;-71
2023/06/28 00:06:47;;;;;;;4.10;1.80;;;;;;;;;;5061419;28;20424;-71
2023/06/28 00:09:14;;;;;;;4.60;2.00;;;;;;;;;;5053848;28;20900;-71
2023/06/28 00:11:41;;;;;;;3.78;1.90;;;;;;;;;;5056356;28;20440;-71
2023/06/28 00:14:08;;;;;;;4.40;2.20;;;;;;;;;;5052813;28;20422;-70
2023/06/28 00:16:37;;;;;;;3.90;1.85;;;;;;;;;;5069499;28;20419;-71
2023/06/28 00:19:04;;;;;;;2.80;1.80;;;;;;;;;;5069820;28;20896;-71
2023/06/28 00:21:31;;;;;;;3.33;1.70;;;;;;;;;;5060617;28;20930;-71
2023/06/28 00:24:00;;;;;;;4.10;1.60;;;;;;;;;;5032300;22;20452;-73
2023/06/28 00:26:27;;;;;;;3.90;1.80;;;;;;;;;;4972763;28;20460;-72
2023/06/28 00:28:54;;;;;;;6.05;2.10;;;;;;;;;;4973571;28;20890;-73
2023/06/28 00:31:21;;;;;;;3.67;1.87;;;;;;;;;;4968615;28;20440;-74
2023/06/28 00:33:49;;;;;;;3.15;1.75;;;;;;;;;;5022702;28;20789;-74
2023/06/28 00:36:17;;;;;;;4.20;1.88;;;;;;;;;;5007888;28;20478;-72
2023/06/28 00:38:44;;;;;;;4.00;2.10;;;;;;;;;;5032167;28;20431;-75
2023/06/28 00:41:11;;;;;;;3.20;1.80;;;;;;;;;;5041256;28;20441;-72
2023/06/28 00:43:38;;;;;;;3.20;1.70;;;;;;;;;;5027561;28;20432;-73
2023/06/28 00:46:05;;;;;;;4.75;1.88;;;;;;;;;;5007045;28;20501;-73
2023/06/28 00:48:32;;;;;;;3.17;1.90;;;;;;;;;;4995012;28;20898;-75
2023/06/28 00:51:01;;;;;;;4.75;1.90;;;;;;;;;;4971701;28;20443;-73
2023/06/28 00:53:28;;;;;;;2.95;1.50;;;;;;;;;;5020958;28;20419;-73
2023/06/28 00:55:56;;;;;;;5.80;1.80;;;;;;;;;;5006010;28;20420;-73
2023/06/28 00:58:23;;;;;;;3.13;1.60;;;;;;;;;;5063857;28;20423;-73
2023/06/28 01:00:50;;;;;;;3.22;1.90;;;;;;;;;;5027559;28;20439;-73
2023/06/28 01:03:18;;;;;;;4.00;1.80;;;;;;;;;;5034611;28;20515;-74
2023/06/28 01:05:45;;;;;;;5.80;2.10;;;;;;;;;;4990233;28;20948;-74
2023/06/28 01:08:14;;;;;;;4.80;1.50;;;;;;;;;;5032838;28;20439;-73
2023/06/28 01:10:42;;;;;;;3.93;1.97;;;;;;;;;;5032065;28;20549;-73
2023/06/28 01:13:09;;;;;;;3.70;1.70;;;;;;;;;;5062903;28;20396;-73
2023/06/28 01:15:36;;;;;;;3.83;1.50;;;;;;;;;;5017559;28;20424;-73
2023/06/28 01:18:05;;;;;;;3.60;1.90;;;;;;;;;;5003513;28;20426;-74
2023/06/28 01:20:33;;;;;;;3.08;1.70;;;;;;;;;;5023935;28;20487;-73
2023/06/28 01:23:02;;;;;;;5.20;1.60;;;;;;;;;;5031740;28;20426;-74
2023/06/28 01:25:29;;;;;;;3.35;1.60;;;;;;;;;;5045078;28;20504;-72
2023/06/28 01:27:56;;;;;;;3.63;1.70;;;;;;;;;;4990318;28;20434;-74
2023/06/28 01:30:25;;;;;;;2.70;1.50;;;;;;;;;;5045528;28;20423;-74
2023/06/28 01:32:53;;;;;;;4.75;2.30;;;;;;;;;;5071666;28;20423;-74
2023/06/28 01:35:20;;;;;;;3.65;1.77;;;;;;;;;;5041123;28;20502;-74
2023/06/28 01:37:47;;;;;;;3.50;1.70;;;;;;;;;;5029301;28;20426;-73
2023/06/28 01:40:16;;;;;;;3.20;1.90;;;;;;;;;;5045569;28;20929;-74
2023/06/28 01:42:44;;;;;;;3.70;1.80;;;;;;;;;;4970069;28;20447;-75
2023/06/28 01:45:12;;;;;;;3.65;1.90;;;;;;;;;;4966412;28;20440;-73
2023/06/28 01:47:39;;;;;;;2.78;1.60;;;;;;;;;;5042646;28;20466;-74
2023/06/28 01:50:07;;;;;;;4.47;1.73;;;;;;;;;;5036372;28;20447;-74
2023/06/28 01:52:34;;;;;;;2.92;1.70;;;;;;;;;;5038249;28;20411;-73
2023/06/28 01:55:01;;;;;;;3.17;1.80;;;;;;;;;;4966239;28;20444;-74
2023/06/28 01:57:30;;;;;;;2.40;1.73;;;;;;;;;;5030836;28;20426;-74
2023/06/28 01:59:57;;;;;;;4.25;2.00;;;;;;;;;;5059000;28;20431;-74
2023/06/28 02:02:24;;;;;;;3.80;2.00;;;;;;;;;;5037452;28;20415;-73
2023/06/28 02:04:51;;;;;;;3.20;2.05;;;;;;;;;;4968180;28;20417;-74
2023/06/28 02:07:18;;;;;;;2.95;1.55;;;;;;;;;;5017917;28;20420;-73
2023/06/28 02:09:45;;;;;;;4.03;1.83;;;;;;;;;;4968454;28;20427;-73
2023/06/28 02:12:12;;;;;;;2.78;1.70;;;;;;;;;;4968747;28;20424;-73
2023/06/28 02:14:41;;;;;;;4.13;2.00;;;;;;;;;;5000000;28;20798;-74
2023/06/28 02:17:13;;;;;;;2.90;2.20;;;;;;;;;;5019463;28;20814;-73
2023/06/28 02:19:40;;;;;;;2.72;1.73;;;;;;;;;;5023676;28;20577;-73
2023/06/28 02:22:07;;;;;;;3.53;1.80;;;;;;;;;;5023367;28;20431;-74
2023/06/28 02:24:34;;;;;;;2.40;1.60;;;;;;;;;;5019676;28;20428;-74
2023/06/28 02:27:01;;;;;;;3.40;2.00;;;;;;;;;;5025117;28;20434;-75
2023/06/28 02:29:28;;;;;;;4.85;1.85;;;;;;;;;;5062621;28;20399;-74
2023/06/28 02:31:57;;;;;;;5.67;2.10;;;;;;;;;;4980091;28;20512;-74
2023/06/28 02:34:24;;;;;;;3.25;2.08;;;;;;;;;;4968070;28;20419;-74
2023/06/28 02:36:51;;;;;;;3.60;1.90;;;;;;;;;;5008009;28;20815;-73
2023/06/28 02:39:18;;;;;;;4.87;2.17;;;;;;;;;;5049781;28;20469;-72
2023/06/28 02:41:45;;;;;;;3.90;2.10;;;;;;;;;;4978894;28;20431;-74
2023/06/28 02:44:12;;;;;;;4.40;1.83;;;;;;;;;;4967352;28;20424;-73
2023/06/28 02:46:39;;;;;;;3.60;1.90;;;;;;;;;;4979588;28;20959;-74
2023/06/28 02:49:07;;;;;;;3.70;2.00;;;;;;;;;;5026756;28;20415;-74
2023/06/28 02:51:34;;;;;;;3.28;1.83;;;;;;;;;;5025550;28;20434;-74
2023/06/28 02:54:02;;;;;;;6.40;2.10;;;;;;;;;;4997321;28;20509;-73
2023/06/28 02:56:29;;;;;;;4.03;2.00;;;;;;;;;;4994435;28;20423;-74
2023/06/28 02:58:56;;;;;;;3.40;2.30;;;;;;;;;;5019162;28;20787;-74
2023/06/28 03:01:23;;;;;;;4.82;2.20;;;;;;;;;;5034242;28;20502;-73
2023/06/28 03:03:50;;;;;;;3.53;1.80;;;;;;;;;;4967805;28;20428;-73
2023/06/28 03:06:19;;;;;;;3.38;1.90;;;;;;;;;;4968662;28;20531;-74
2023/06/28 03:08:46;;;;;;;4.50;2.00;;;;;;;;;;5050730;28;20419;-73
2023/06/28 03:11:13;;;;;;;3.20;1.80;;;;;;;;;;5069338;28;20443;-72
2023/06/28 03:13:40;;;;;;;3.65;1.83;;;;;;;;;;5025615;28;20441;-74
2023/06/28 03:16:08;;;;;;;5.30;1.80;;;;;;;;;;5021617;28;20431;-73
2023/06/28 03:18:35;;;;;;;2.60;1.70;;;;;;;;;;5039077;28;20419;-74
2023/06/28 03:21:02;;;;;;;3.83;1.92;;;;;;;;;;4981085;28;20440;-73
2023/06/28 03:23:31;;;;;;;4.80;2.37;;;;;;;;;;4989781;28;1725785;-74
2023/06/28 03:25:58;;;;;;;4.47;2.10;;;;;;;;;;4968020;28;20432;-74
2023/06/28 03:28:26;;;;;;;4.55;2.10;;;;;;;;;;4972894;28;20475;-74
2023/06/28 03:30:53;;;;;;;3.72;1.90;;;;;;;;;;5049241;28;20415;-75
2023/06/28 03:33:20;;;;;;;2.80;2.00;;;;;;;;;;5005558;28;20499;-74
2023/06/28 03:35:47;;;;;;;5.10;2.10;;;;;;;;;;5026672;28;20428;-74
2023/06/28 03:38:14;;;;;;;3.92;1.98;;;;;;;;;;5036194;28;20434;-74
2023/06/28 03:40:42;;;;;;;3.60;1.90;;;;;;;;;;5023357;28;20424;-74
2023/06/28 03:43:09;;;;;;;5.55;2.30;;;;;;;;;;5001685;28;20454;-75
2023/06/28 03:45:36;;;;;;;2.92;2.00;;;;;;;;;;5077540;28;20851;-73
2023/06/28 03:48:03;;;;;;;3.50;2.10;;;;;;;;;;5075244;28;20421;-73
2023/06/28 03:50:31;;;;;;;4.22;2.10;;;;;;;;;;5025139;28;20470;-74
2023/06/28 03:52:58;;;;;;;4.82;2.00;;;;;;;;;;4982014;28;20459;-74
2023/06/28 03:55:25;;;;;;;4.22;2.15;;;;;;;;;;5056988;28;20423;-74
2023/06/28 03:57:53;;;;;;;3.90;1.70;;;;;;;;;;5058091;28;20422;-74
2023/06/28 04:00:21;;;;;;;5.18;2.00;;;;;;;;;;5022762;28;20506;-74
2023/06/28 04:02:48;;;;;;;2.90;1.80;;;;;;;;;;4967840;28;20929;-74
2023/06/28 04:05:15;;;;;;;4.32;1.90;;;;;;;;;;5033466;28;20890;-74
2023/06/28 04:07:42;;;;;;;4.33;2.60;;;;;;;;;;5024815;28;20516;-74
2023/06/28 04:10:10;;;;;;;4.53;1.95;;;;;;;;;;4991030;28;20424;-74
2023/06/28 04:12:37;;;;;;;5.18;2.05;;;;;;;;;;4985018;28;20442;-74
2023/06/28 04:15:07;;;;;;;4.28;1.90;;;;;;;;;;4967018;28;20451;-74
2023/06/28 04:17:34;;;;;;;4.60;1.90;;;;;;;;;;4990333;28;20477;-73
2023/06/28 04:20:04;;;;;;;5.50;2.00;;;;;;;;;;5019715;28;20434;-64
2023/06/28 04:22:32;;;;;;;3.10;2.00;;;;;;;;;;5023667;28;20860;-67
2023/06/28 04:24:59;;;;;;;4.70;2.80;;;;;;;;;;5000520;28;20471;-63
2023/06/28 04:27:26;;;;;;;4.60;2.08;;;;;;;;;;5007409;28;20428;-64
2023/06/28 04:29:53;;;;;;;5.15;2.00;;;;;;;;;;5006857;28;20424;-65
2023/06/28 04:32:25;;;;;;;4.45;1.80;;;;;;;;;;4966563;28;20803;-67
2023/06/28 04:34:53;;;;;;;4.43;2.17;;;;;;;;;;4970349;28;20427;-65
2023/06/28 04:37:20;;;;;;;4.05;1.60;;;;;;;;;;5026071;28;20451;-66
2023/06/28 04:39:47;;;;;;;2.80;1.60;;;;;;;;;;5018574;28;20802;-64
2023/06/28 04:42:15;;;;;;;3.58;1.90;;;;;;;;;;4963440;28;20814;-65
2023/06/28 04:44:43;;;;;;;4.15;1.60;;;;;;;;;;4955961;28;20432;-65
2023/06/28 04:47:15;;;;;;;4.10;1.70;;;;;;;;;;4982545;28;20437;-66
2023/06/28 04:49:43;;;;;;;4.20;1.67;;;;;;;;;;4965025;28;20440;-67
2023/06/28 04:52:12;;;;;;;2.90;1.70;;;;;;;;;;4984449;28;20440;-65
2023/06/28 04:54:40;;;;;;;3.43;1.63;;;;;;;;;;5014260;28;20428;-65
2023/06/28 04:57:07;;;;;;;2.83;1.60;;;;;;;;;;5022450;28;20793;-66
2023/06/28 04:59:34;;;;;;;2.92;1.35;;;;;;;;;;5012936;28;20461;-65
2023/06/28 05:02:03;;;;;;;3.65;1.70;;;;;;;;;;5009975;28;20447;-64
2023/06/28 05:04:32;;;;;;;4.72;1.80;;;;;;;;;;4984380;28;20415;-66
2023/06/28 05:07:03;;;;;;;4.25;1.70;;;;;;;;;;5036629;28;20493;-66
2023/06/28 05:09:30;;;;;;;6.53;1.90;;;;;;;;;;4983831;28;20453;-66
2023/06/28 05:11:57;;;;;;;3.47;1.85;;;;;;;;;;5038753;28;20434;-65
2023/06/28 05:14:24;;;;;;;4.07;2.28;;;;;;;;;;5039572;28;20424;-64
2023/06/28 05:16:52;;;;;;;4.32;1.95;;;;;;;;;;4996567;28;20478;-67
2023/06/28 05:19:19;;;;;;;2.85;1.98;;;;;;;;;;4985977;28;20468;-64
2023/06/28 05:21:46;;;;;;;4.20;2.20;;;;;;;;;;4969481;28;20490;-64
2023/06/28 05:24:14;;;;;;;2.70;1.80;;;;;;;;;;4992511;28;20444;-73
2023/06/28 05:26:41;;;;;;;3.50;1.60;;;;;;;;;;4970733;28;20411;-75
2023/06/28 05:29:08;;;;;;;3.97;1.90;;;;;;;;;;5010171;28;20443;-73
2023/06/28 05:31:37;;;;;;;3.65;1.88;;;;;;;;;;4968890;28;20431;-73
2023/06/28 05:34:04;;;;;;;2.63;1.70;;;;;;;;;;5006238;28;20411;-73
2023/06/28 05:36:33;;;;;;;3.13;1.80;;;;;;;;;;4996548;28;20451;-75
2023/06/28 05:39:00;;;;;;;3.80;1.80;;;;;;;;;;4966278;28;20448;-75
2023/06/28 05:41:28;;;;;;;2.85;1.70;;;;;;;;;;5004258;28;20791;-75
2023/06/28 05:43:56;;;;;;;3.80;1.70;;;;;;;;;;4969672;28;20439;-75
2023/06/28 05:46:23;;;;;;;5.57;2.15;;;;;;;;;;5037101;28;20788;-75
2023/06/28 05:48:51;;;;;;;4.70;2.60;;;;;;;;;;4981974;28;20491;-73
2023/06/28 05:51:18;;;;;;;4.30;1.90;;;;;;;;;;4997430;28;20479;-74
2023/06/28 05:53:45;;;;;;;3.70;1.80;;;;;;;;;;4983290;28;20438;-74
2023/06/28 05:56:12;;;;;;;3.20;1.73;;;;;;;;;;5029698;28;20432;-75
2023/06/28 05:58:41;;;;;;;5.13;1.80;;;;;;;;;;4971118;28;20428;-74
2023/06/28 06:01:08;;;;;;;5.13;2.10;;;;;;;;;;4992761;28;20423;-75
2023/06/28 06:03:35;;;;;;;3.60;1.80;;;;;;;;;;5043059;28;20443;-75
2023/06/28 06:06:02;;;;;;;4.05;2.00;;;;;;;;;;5063311;28;20438;-73
2023/06/28 06:08:29;;;;;;;3.20;1.70;;;;;;;;;;5031811;28;20448;-75
2023/06/28 06:10:56;;;;;;;3.55;1.90;;;;;;;;;;5021296;28;20437;-74
2023/06/28 06:13:23;;;;;;;3.92;2.05;;;;;;;;;;5003273;28;20452;-74
2023/06/28 06:15:51;;;;;;;3.60;1.80;;;;;;;;;;4970673;28;20531;-74
2023/06/28 06:18:18;;;;;;;4.13;2.10;;;;;;;;;;4970624;28;20424;-74
2023/06/28 06:20:46;;;;;;;4.50;2.10;;;;;;;;;;4995284;28;20443;-72
2023/06/28 06:23:13;;;;;;;4.90;2.40;;;;;;;;;;4989899;28;20431;-73
2023/06/28 06:25:40;;;;;;;4.45;2.00;;;;;;;;;;5010291;23;20452;-71
2023/06/28 06:28:07;;;;;;;4.55;2.10;;;;;;;;;;5000689;28;20908;-71
2023/06/28 06:30:34;;;;;;;4.68;2.20;;;;;;;;;;4998097;28;20430;-71
2023/06/28 06:33:02;;;;;;;6.53;2.00;;;;;;;;;;4994557;28;20428;-70
2023/06/28 06:35:29;;;;;;;3.50;1.90;;;;;;;;;;4987658;28;20770;-70
2023/06/28 06:37:56;;;;;;;3.75;1.70;;;;;;;;;;4994587;28;20432;-70
2023/06/28 06:40:24;;;;;;;2.97;1.90;;;;;;;;;;4987134;28;20446;-70
2023/06/28 06:42:51;;;;;;;3.92;2.00;;;;;;;;;;4990143;28;20438;-71
2023/06/28 06:45:19;;;;;;;4.75;2.25;;;;;;;;;;4995260;28;20431;-70
2023/06/28 06:47:46;;;;;;;4.38;2.03;;;;;;;;;;4981354;28;20632;-70
2023/06/28 06:50:17;;;;;;;4.53;2.30;;;;;;;;;;4983979;28;20448;-70
2023/06/28 06:52:44;;;;;;;4.20;2.20;;;;;;;;;;4989745;28;20509;-70
2023/06/28 06:55:11;;;;;;;3.90;2.35;;;;;;;;;;4982225;28;20566;-70
2023/06/28 06:57:39;;;;;;;4.82;1.90;;;;;;;;;;4992779;28;20912;-70
2023/06/28 07:00:06;;;;;;;4.57;2.30;;;;;;;;;;4982474;28;20888;-70
2023/06/28 07:02:33;;;;;;;4.70;2.53;;;;;;;;;;4994988;28;20464;-70
2023/06/28 07:05:00;;;;;;;5.15;2.38;;;;;;;;;;4987947;28;20894;-72
2023/06/28 07:07:29;;;;;;;5.30;2.70;;;;;;;;;;4986406;28;20701;-72
2023/06/28 07:09:56;;;;;;;4.10;2.40;;;;;;;;;;4980982;28;20435;-70
2023/06/28 07:12:23;;;;;;;5.68;3.10;;;;;;;;;;4981336;28;20438;-70
2023/06/28 07:14:50;;;;;;;4.05;2.50;;;;;;;;;;4988963;28;20426;-70
2023/06/28 07:17:17;;;;;;;5.63;2.60;;;;;;;;;;4984453;28;20444;-70
2023/06/28 07:19:44;;;;;;;4.90;2.40;;;;;;;;;;4992864;28;20519;-70
2023/06/28 07:22:11;;;;;;;4.13;2.40;;;;;;;;;;4985380;28;20426;-72
2023/06/28 07:24:40;;;;;;;5.78;2.75;;;;;;;;;;4983375;28;20606;-70
2023/06/28 07:27:07;;;;;;;5.23;2.60;;;;;;;;;;4991483;28;20425;-70
2023/06/28 07:29:34;;;;;;;4.80;2.60;;;;;;;;;;4990521;28;20873;-72
2023/06/28 07:32:01;;;;;;;3.88;2.40;;;;;;;;;;4985514;28;20421;-72
2023/06/28 07:34:28;;;;;;;5.00;2.70;;;;;;;;;;4990972;28;20436;-72
2023/06/28 07:36:55;;;;;;;7.60;2.80;;;;;;;;;;4989877;28;20567;-70
2023/06/28 07:39:22;;;;;;;4.57;2.10;;;;;;;;;;4981230;28;20846;-70
2023/06/28 07:41:51;;;;;;;7.68;2.45;;;;;;;;;;4990732;28;20450;-70
2023/06/28 07:44:18;;;;;;;4.20;2.30;;;;;;;;;;4994160;28;20436;-70
2023/06/28 07:46:45;;;;;;;3.97;2.25;;;;;;;;;;4988361;28;20521;-70
2023/06/28 07:49:12;;;;;;;3.90;2.70;;;;;;;;;;4981283;28;20434;-70
2023/06/28 07:51:39;;;;;;;3.80;2.05;;;;;;;;;;4982645;28;20430;-70
2023/06/28 07:54:06;;;;;;;4.38;2.33;;;;;;;;;;4986537;28;20441;-70
2023/06/28 07:56:33;;;;;;;4.10;2.00;;;;;;;;;;4991180;28;20927;-70
2023/06/28 07:59:03;;;;;;;5.57;2.20;;;;;;;;;;4985407;28;20433;-69
2023/06/28 08:01:32;;;;;;;4.93;2.00;;;;;;;;;;4981929;28;20595;-70
2023/06/28 08:03:59;;;;;;;4.57;2.20;;;;;;;;;;4981814;28;20423;-70
2023/06/28 08:06:26;;;;;;;4.10;2.00;;;;;;;;;;4981128;28;20777;-70
2023/06/28 08:08:53;;;;;;;3.50;2.13;;;;;;;;;;4980278;28;20446;-70
2023/06/28 08:11:20;;;;;;;4.40;1.95;;;;;;;;;;4987975;28;20418;-70
2023/06/28 08:13:47;;;;;;;4.60;2.60;;;;;;;;;;4981906;28;20538;-70
2023/06/28 08:16:16;;;;;;;6.40;2.70;;;;;;;;;;5001348;28;20442;-70
2023/06/28 08:18:43;;;;;;;5.17;3.10;;;;;;;;;;4994021;28;20583;-70
2023/06/28 08:21:10;;;;;;;7.07;3.20;;;;;;;;;;4994792;28;20429;-70
2023/06/28 08:23:37;;;;;;;4.90;3.10;;;;;;;;;;4990725;28;20437;-70
2023/06/28 08:26:04;;;;;;;6.15;3.28;;;;;;;;;;4994846;28;20428;-70
2023/06/28 08:28:31;;;;;;;4.88;2.70;;;;;;;;;;4988733;28;20501;-70
2023/06/28 08:30:58;;;;;;;5.13;2.40;;;;;;;;;;4983660;28;20441;-70
2023/06/28 08:33:27;;;;;;;5.10;2.53;;;;;;;;;;4986161;28;20542;-71
2023/06/28 08:35:54;;;;;;;6.30;2.50;;;;;;;;;;4987798;28;20413;-71
2023/06/28 08:38:21;;;;;;;4.72;2.40;;;;;;;;;;4986908;28;20418;-70
2023/06/28 08:40:48;;;;;;;6.78;2.60;;;;;;;;;;4995253;28;20529;-70
2023/06/28 08:43:17;;;;;;;4.60;2.30;;;;;;;;;;5000022;28;20444;-70
2023/06/28 08:45:45;;;;;;;4.13;2.30;;;;;;;;;;4995598;28;20424;-70
2023/06/28 08:48:13;;;;;;;5.13;2.10;;;;;;;;;;5000021;28;20516;-70
2023/06/28 08:50:43;;;;;;;2.50;1.90;;;;;;;;;;4985570;28;20441;-71
2023/06/28 08:53:10;;;;;;;3.47;1.92;;;;;;;;;;4995351;28;20425;-70
2023/06/28 08:55:37;;;;;;;4.15;2.10;;;;;;;;;;4994089;28;20453;-70
2023/06/28 08:58:05;;;;;;;3.78;1.80;;;;;;;;;;4992946;28;20433;-70
2023/06/28 09:00:32;;;;;;;4.15;2.30;;;;;;;;;;4993180;28;20434;-71
2023/06/28 09:02:59;;;;;;;2.67;1.80;;;;;;;;;;4995953;28;20515;-70
2023/06/28 09:05:26;;;;;;;4.72;2.10;;;;;;;;;;5003968;28;20909;-71
2023/06/28 09:07:56;;;;;;;3.50;2.00;;;;;;;;;;4985593;28;20781;-70
2023/06/28 09:10:23;;;;;;;4.95;2.20;;;;;;;;;;4985572;28;20450;-71
2023/06/28 09:12:51;;;;;;;3.20;1.60;;;;;;;;;;4994182;28;20428;-70
2023/06/28 09:15:20;;;;;;;3.78;1.70;;;;;;;;;;4988794;28;20522;-71
2023/06/28 09:17:47;;;;;;;3.30;1.80;;;;;;;;;;4983569;28;20423;-70
2023/06/28 09:20:17;;;;;;;4.22;1.90;;;;;;;;;;4982705;28;20441;-70
2023/06/28 09:22:45;;;;;;;3.30;1.90;;;;;;;;;;4983696;28;20489;-70
2023/06/28 09:25:16;;;;;;;6.07;2.00;;;;;;;;;;4986272;28;20441;-70
2023/06/28 09:27:43;;;;;;;3.63;2.08;;;;;;;;;;4991493;28;20746;-70
2023/06/28 09:30:11;;;;;;;3.87;2.00;;;;;;;;;;4982831;28;20506;-70
2023/06/28 09:32:41;;;;;;;4.65;2.10;;;;;;;;;;4986789;28;20445;-71
2023/06/28 09:35:11;;;;;;;3.53;2.03;;;;;;;;;;4988335;28;20430;-71
2023/06/28 09:37:39;;;;;;;4.65;1.98;;;;;;;;;;4984009;28;20434;-70
2023/06/28 09:40:07;;;;;;;5.13;2.00;;;;;;;;;;4984041;28;20522;-71
2023/06/28 09:42:43;;;;;;;5.15;2.20;;;;;;;;;;4989289;28;20441;-70
2023/06/28 09:45:11;;;;;;;4.60;2.20;;;;;;;;;;4988359;28;20794;-70
2023/06/28 09:47:38;;;;;;;4.45;2.13;;;;;;;;;;4991302;28;20423;-70
2023/06/28 09:50:06;;;;;;;3.70;2.20;;;;;;;;;;4997472;28;20624;-71
2023/06/28 09:52:37;;;;;;;6.00;2.40;;;;;;;;;;4994220;28;20907;-71
2023/06/28 09:55:04;;;;;;;7.45;2.90;;;;;;;;;;5001670;28;20429;-70
2023/06/28 09:57:32;;;;;;;5.40;2.40;;;;;;;;;;4992121;28;20473;-70
2023/06/28 10:00:04;;;;;;;4.00;2.40;;;;;;;;;;4982818;28;20435;-70
2023/06/28 10:02:32;;;;;;;6.90;2.25;;;;;;;;;;4983780;28;20421;-70
2023/06/28 10:04:59;;;;;;;4.70;2.40;;;;;;;;;;4988634;28;20806;-70
2023/06/28 10:07:27;;;;;;;7.38;2.80;;;;;;;;;;4991696;28;20756;-70
2023/06/28 10:09:54;;;;;;;6.28;2.60;;;;;;;;;;4991690;28;20425;-71
2023/06/28 10:12:22;;;;;;;4.45;2.60;;;;;;;;;;4989961;28;20887;-70
2023/06/28 10:14:51;;;;;;;6.32;3.10;;;;;;;;;;4991697;28;20442;-70
2023/06/28 10:17:19;;;;;;;8.98;3.50;;;;;;;;;;4998653;28;20432;-71
2023/06/28 10:19:46;;;;;;;7.10;2.83;;;;;;;;;;4993051;28;20445;-70
2023/06/28 10:22:14;;;;;;;4.70;2.60;;;;;;;;;;4983711;28;20541;-70
2023/06/28 10:24:42;;;;;;;4.03;2.75;;;;;;;;;;4985177;28;20513;-70
2023/06/28 10:27:10;;;;;;;4.60;3.40;;;;;;;;;;4985005;28;20449;-70
2023/06/28 10:29:37;;;;;;;9.77;4.13;;;;;;;;;;5001167;28;20768;-73
2023/06/28 10:32:05;;;;;;;6.68;3.05;;;;;;;;;;4985658;28;20467;-70
2023/06/28 10:34:34;;;;;;;5.07;2.60;;;;;;;;;;4984303;28;20438;-71
2023/06/28 10:37:01;;;;;;;4.78;2.90;;;;;;;;;;4989956;28;20525;-70
2023/06/28 10:39:28;;;;;;;4.68;2.40;;;;;;;;;;4989611;28;20450;-70
2023/06/28 10:41:56;;;;;;;5.47;2.65;;;;;;;;;;4987933;28;20521;-70
2023/06/28 10:44:23;;;;;;;6.75;2.75;;;;;;;;;;4987062;28;20414;-70
2023/06/28 10:46:52;;;;;;;4.90;2.63;;;;;;;;;;4983154;28;20422;-70
2023/06/28 10:49:19;;;;;;;4.60;2.40;;;;;;;;;;4993625;28;20524;-70
2023/06/28 10:51:50;;;;;;;4.10;2.40;;;;;;;;;;4986956;28;20921;-70
2023/06/28 10:54:18;;;;;;;5.03;2.78;;;;;;;;;;4986966;28;20522;-70
2023/06/28 10:56:48;;;;;;;5.47;2.13;;;;;;;;;;4993954;28;20429;-70
2023/06/28 10:59:15;;;;;;;5.13;2.70;;;;;;;;;;4987126;28;20426;-70
2023/06/28 11:01:52;;;;;;;4.10;2.70;;;;;;;;;;5002987;28;20546;-70
2023/06/28 11:04:21;;;;;;;5.00;2.60;;;;;;;;;;4987578;28;20465;-70
2023/06/28 11:06:50;;;;;;;5.00;2.65;;;;;;;;;;4988606;28;20424;-70
2023/06/28 11:09:19;;;;;;;5.70;2.50;;;;;;;;;;4999870;28;20593;-70
2023/06/28 11:11:56;;;;;;;5.80;2.80;;;;;;;;;;4995555;28;20976;-71
2023/06/28 11:14:25;;;;;;;5.60;2.70;;;;;;;;;;4993779;28;20563;-71
2023/06/28 11:16:52;;;;;;;4.40;2.90;;;;;;;;;;4984918;28;20959;-71
2023/06/28 11:19:22;;;;;;;5.10;2.33;;;;;;;;;;4995234;28;20514;-71
2023/06/28 11:21:56;;;;;;;4.25;2.30;;;;;;;;;;4990001;28;20495;-71
2023/06/28 11:24:25;;;;;;;4.63;2.70;;;;;;;;;;4981933;28;20434;-71
2023/06/28 11:26:53;;;;;;;4.72;2.50;;;;;;;;;;4992443;28;20427;-71
2023/06/28 11:29:20;;;;;;;5.45;2.40;;;;;;;;;;4982296;28;20503;-71
2023/06/28 11:31:48;;;;;;;5.40;2.70;;;;;;;;;;4982377;28;20431;-71
2023/06/28 11:34:15;;;;;;;5.15;2.80;;;;;;;;;;4983801;28;20503;-71
2023/06/28 11:36:43;;;;;;;4.60;2.50;;;;;;;;;;4993183;28;20716;-71
2023/06/28 11:39:14;;;;;;;5.95;2.80;;;;;;;;;;4982085;28;20498;-71
2023/06/28 11:41:42;;;;;;;5.10;2.30;;;;;;;;;;4989480;28;20542;-71
2023/06/28 11:44:09;;;;;;;4.63;2.60;;;;;;;;;;4981270;28;20442;-72
2023/06/28 11:46:36;;;;;;;3.10;2.42;;;;;;;;;;4993831;28;20416;-70
2023/06/28 11:49:04;;;;;;;5.00;2.55;;;;;;;;;;5001278;28;20476;-72
2023/06/28 11:51:31;;;;;;;3.95;2.63;;;;;;;;;;5001340;28;20532;-71
2023/06/28 11:53:58;;;;;;;3.28;2.10;;;;;;;;;;5002351;28;20748;-72
2023/06/28 11:56:36;;;;;;;5.53;2.78;;;;;;;;;;4988830;28;20839;-72
2023/06/28 11:59:13;;;;;;;7.75;3.00;;;;;;;;;;4988373;28;20436;-69
2023/06/28 12:01:40;;;;;;;6.00;2.70;;;;;;;;;;4989577;28;20544;-69
2023/06/28 12:04:14;;;;;;;6.05;2.60;;;;;;;;;;4980791;28;20506;-71
2023/06/28 12:06:42;;;;;;;6.53;2.67;;;;;;;;;;4990945;28;20425;-69
2023/06/28 12:09:17;;;;;;;5.57;2.47;;;;;;;;;;4983124;28;20892;-71
2023/06/28 12:11:52;;;;;;;5.40;3.30;;;;;;;;;;4992389;28;20512;-70
2023/06/28 12:14:19;;;;;;;6.00;2.85;;;;;;;;;;4995467;28;20438;-70
2023/06/28 12:16:46;;;;;;;4.78;2.95;;;;;;;;;;4981677;28;20847;-70
2023/06/28 12:19:16;;;;;;;5.65;3.03;;;;;;;;;;4994072;28;20422;-70
2023/06/28 12:21:43;;;;;;;5.38;2.80;;;;;;;;;;4984167;28;20441;-70
2023/06/28 12:24:15;;;;;;;4.17;2.40;;;;;;;;;;4988614;28;20508;-70
2023/06/28 12:26:45;;;;;;;4.45;2.60;;;;;;;;;;4998018;23;20552;-66
2023/06/28 12:29:13;;;;;;;4.40;3.00;;;;;;;;;;4952774;28;20452;-67
2023/06/28 12:31:41;;;;;;;5.20;2.93;;;;;;;;;;4945653;28;20418;-66
2023/06/28 12:34:09;;;;;;;3.80;2.70;;;;;;;;;;4946069;28;20434;-67
2023/06/28 12:36:36;;;;;;;4.82;2.90;;;;;;;;;;4945946;28;20426;-67
2023/06/28 12:39:03;;;;;;;6.00;3.17;;;;;;;;;;4973410;28;20436;-67
2023/06/28 12:41:30;;;;;;;4.13;2.55;;;;;;;;;;5025248;28;20791;-67
2023/06/28 12:43:58;;;;;;;5.30;3.25;;;;;;;;;;4999751;28;20420;-67
2023/06/28 12:46:28;;;;;;;6.13;2.90;;;;;;;;;;4952503;28;20429;-67
2023/06/28 12:48:57;;;;;;;6.03;2.90;;;;;;;;;;4954930;28;20478;-67
2023/06/28 12:51:24;;;;;;;5.10;3.00;;;;;;;;;;4970552;28;20428;-67
2023/06/28 12:53:52;;;;;;;5.75;2.78;;;;;;;;;;4994233;28;20460;-67
2023/06/28 12:56:19;;;;;;;5.10;2.80;;;;;;;;;;5018395;28;20426;-67
2023/06/28 12:58:46;;;;;;;5.20;2.63;;;;;;;;;;4951616;28;20796;-67
2023/06/28 13:01:13;;;;;;;6.07;2.70;;;;;;;;;;4959296;28;20939;-67
2023/06/28 13:03:41;;;;;;;4.63;2.72;;;;;;;;;;4946959;28;20928;-67
2023/06/28 13:06:08;;;;;;;3.72;2.85;;;;;;;;;;4946876;28;20935;-67
2023/06/28 13:08:35;;;;;;;4.30;3.10;;;;;;;;;;4974718;28;20443;-67
2023/06/28 13:11:02;;;;;;;4.80;3.30;;;;;;;;;;5011909;28;20418;-67
2023/06/28 13:13:29;;;;;;;6.15;2.90;;;;;;;;;;4950276;28;20418;-67
2023/06/28 13:15:56;;;;;;;6.50;2.88;;;;;;;;;;4949742;28;20534;-67
2023/06/28 13:18:24;;;;;;;4.70;3.10;;;;;;;;;;5001879;28;20439;-67
2023/06/28 13:20:52;;;;;;;6.05;3.47;;;;;;;;;;5005043;28;20568;-68
2023/06/28 13:23:19;;;;;;;4.10;2.80;;;;;;;;;;4977479;28;20845;-66
2023/06/28 13:25:47;;;;;;;6.13;2.90;;;;;;;;;;4998092;28;20918;-66
2023/06/28 13:28:14;;;;;;;4.57;3.13;;;;;;;;;;4969273;28;20460;-66
2023/06/28 13:30:41;;;;;;;6.50;2.90;;;;;;;;;;4968814;28;21009;-67
2023/06/28 13:33:08;;;;;;;5.10;3.00;;;;;;;;;;4956864;28;20935;-67
2023/06/28 13:35:35;;;;;;;7.53;3.40;;;;;;;;;;5002082;28;20437;-67
2023/06/28 13:38:04;;;;;;;5.05;2.90;;;;;;;;;;5019049;28;20449;-67
2023/06/28 13:40:31;;;;;;;5.60;2.83;;;;;;;;;;5009083;28;20428;-67
2023/06/28 13:42:58;;;;;;;4.80;3.40;;;;;;;;;;4955452;28;20445;-67
2023/06/28 13:45:25;;;;;;;6.63;3.22;;;;;;;;;;4968984;28;20424;-66
2023/06/28 13:47:52;;;;;;;6.82;3.35;;;;;;;;;;4955281;28;20422;-67
2023/06/28 13:50:19;;;;;;;5.90;3.20;;;;;;;;;;5008721;28;20471;-67
2023/06/28 13:52:46;;;;;;;4.43;2.97;;;;;;;;;;4991530;28;20443;-68
2023/06/28 13:55:15;;;;;;;5.05;2.90;;;;;;;;;;5033549;28;20493;-67
2023/06/28 13:57:42;;;;;;;5.85;3.17;;;;;;;;;;4973630;28;20820;-68
2023/06/28 14:00:09;;;;;;;5.30;2.60;;;;;;;;;;4963984;28;20443;-67
2023/06/28 14:02:36;;;;;;;4.72;2.60;;;;;;;;;;4952384;28;20441;-68
2023/06/28 14:05:04;;;;;;;4.32;3.20;;;;;;;;;;4960139;28;20426;-67
2023/06/28 14:07:31;;;;;;;5.38;2.70;;;;;;;;;;4963930;28;20515;-67
2023/06/28 14:09:58;;;;;;;5.07;2.50;;;;;;;;;;5014791;28;20853;-69
2023/06/28 14:12:27;;;;;;;4.57;2.60;;;;;;;;;;4968835;28;20425;-66
2023/06/28 14:14:54;;;;;;;4.47;2.50;;;;;;;;;;4958870;28;20426;-68
2023/06/28 14:17:21;;;;;;;3.40;2.30;;;;;;;;;;4948808;28;20791;-68
2023/06/28 14:19:48;;;;;;;4.57;2.40;;;;;;;;;;4957961;28;20844;-69
2023/06/28 14:22:15;;;;;;;4.05;2.45;;;;;;;;;;4955764;28;20922;-68
2023/06/28 14:24:42;;;;;;;5.60;2.60;;;;;;;;;;4996101;28;20436;-68
2023/06/28 14:27:10;;;;;;;4.47;2.58;;;;;;;;;;5027931;28;20447;-69
2023/06/28 14:29:39;;;;;;;3.80;2.30;;;;;;;;;;5008827;28;20431;-68
2023/06/28 14:32:06;;;;;;;4.17;2.40;;;;;;;;;;4977511;28;20851;-68
2023/06/28 14:34:33;;;;;;;5.40;2.50;;;;;;;;;;5013114;28;20463;-67
2023/06/28 14:37:00;;;;;;;4.50;2.60;;;;;;;;;;5000081;28;20435;-68
2023/06/28 14:39:27;;;;;;;4.55;2.30;;;;;;;;;;5028411;28;20415;-68
2023/06/28 14:41:54;;;;;;;4.20;2.57;;;;;;;;;;4949610;28;20938;-68
2023/06/28 14:44:21;;;;;;;4.60;2.57;;;;;;;;;;4964580;28;20420;-67
2023/06/28 14:46:50;;;;;;;5.10;2.57;;;;;;;;;;4962334;28;20421;-68